Qabala International Airport

About
Name: Qabala International Airport
Identifier:  GBB/UBBQ
Serves:  Qabala
Operator:  Government
Public/Private:  Public
Local Time:  20. Jul 01:01 +04
Description: Qabala International Airport is an airport serving Qabala, the capital of the Gabala district in Azerbaijan. The airport was officially opened by President Ilham Aliyev on 17 November 2011.
Source: Wikipedia
Location
Runways
Identifier Length (m/ft) Surface
16/34 3,600/11,809 Asphalt/Concrete
Flights per Day
0 flights
Distance: 1,812km (1,126mi)
Punctuality
0% (0 flights per day delayed)
Delay Average: 7 minutes
Current Weather
 26 C (Humidity: 54%)
  7kt (12km/h / 8mph) from 40°
  Few clouds at 5,500 feet (1,676 meter)
  9km (6 mi.)
 METAR UBBQ 192000Z 04007KT 9999 FEW055 26/16 Q1013 R34/CLRD// NOSIG RMK MT OP

Current Flights

Departures
Number Departure To Airline
Arrivals
Number Arrival From Airline
 G9307 16:10 +532  Sharjah  Air Arabia

Current Delays

Departures
N/A
Arrivals
N/A

Destinations

Top Destinations
Airport Flights
per week
Seats
per week
  Moscow (VKO) 1 272 0 38

Airlines & Planes

Top Airlines
Airline Flights
per Day
Seats
per Day
  AZAL Azerbaijan Airlines 0 38
Top Plane Types
Model Flights Seats
Airbus A320 0.3/day 38/day 38.93333333333333